createdAt,value
2023-03-12T00:00:52.467Z,79.64
2023-03-12T00:01:52.480Z,79.22
2023-03-12T00:02:52.710Z,78.70
2023-03-12T00:03:52.603Z,78.49
2023-03-12T00:04:52.438Z,78.28
2023-03-12T00:05:52.420Z,78.07
2023-03-12T00:06:52.408Z,78.07
2023-03-12T00:07:52.400Z,78.18
2023-03-12T00:08:53.912Z,78.18
2023-03-12T00:09:52.401Z,78.07
2023-03-12T00:10:52.369Z,77.94
2023-03-12T00:11:52.357Z,77.94
2023-03-12T00:12:52.328Z,77.83
2023-03-12T00:13:52.408Z,77.72
2023-03-12T00:14:52.368Z,77.72
2023-03-12T00:15:52.321Z,77.83
2023-03-12T00:16:52.313Z,77.72
2023-03-12T00:17:52.270Z,77.62
2023-03-12T00:18:52.272Z,77.83
2023-03-12T00:19:52.299Z,77.83
2023-03-12T00:20:52.264Z,77.83
2023-03-12T00:21:52.230Z,77.94
2023-03-12T00:22:52.257Z,77.94
2023-03-12T00:23:52.255Z,77.94
2023-03-12T00:24:52.427Z,78.14
2023-03-12T00:25:52.215Z,78.25
2023-03-12T00:26:52.226Z,78.21
2023-03-12T00:27:52.155Z,78.21
2023-03-12T00:28:52.334Z,78.21
2023-03-12T00:29:52.130Z,78.21
2023-03-12T00:30:52.148Z,78.21
2023-03-12T00:31:52.243Z,78.21
2023-03-12T00:32:52.178Z,78.00
2023-03-12T00:33:52.170Z,78.52
2023-03-12T00:34:52.150Z,78.73
2023-03-12T00:35:52.126Z,79.05
2023-03-12T00:36:52.056Z,79.36
2023-03-12T00:37:52.083Z,79.22
2023-03-12T00:38:52.064Z,79.32
2023-03-12T00:39:52.090Z,79.43
2023-03-12T00:40:52.058Z,79.53
2023-03-12T00:41:52.003Z,79.01
2023-03-12T00:42:51.997Z,78.97
2023-03-12T00:43:51.991Z,78.87
2023-03-12T00:44:51.973Z,78.66
2023-03-12T00:45:51.957Z,79.11
2023-03-12T00:46:51.975Z,79.63
2023-03-12T00:47:51.925Z,79.84
2023-03-12T00:48:51.965Z,79.74
2023-03-12T00:49:51.926Z,79.94
2023-03-12T00:50:51.906Z,80.05
2023-03-12T00:51:51.906Z,79.91
2023-03-12T00:52:51.873Z,79.80
2023-03-12T00:53:51.868Z,79.49
2023-03-12T00:54:51.897Z,79.60
2023-03-12T00:55:51.975Z,79.60
2023-03-12T00:56:51.824Z,79.18
2023-03-12T00:57:51.805Z,79.08
2023-03-12T00:58:51.803Z,79.49
2023-03-12T00:59:51.785Z,79.49
2023-03-12T01:00:51.917Z,79.28
2023-03-12T01:01:51.768Z,79.08
2023-03-12T01:02:51.857Z,78.97
2023-03-12T01:03:51.796Z,79.49
2023-03-12T01:04:51.754Z,79.49
2023-03-12T01:05:51.722Z,79.98
2023-03-12T01:06:51.753Z,81.23
2023-03-12T01:07:51.712Z,82.21
2023-03-12T01:08:51.714Z,82.48
2023-03-12T01:09:51.696Z,82.14
2023-03-12T01:10:51.731Z,81.37
2023-03-12T01:11:51.659Z,81.09
2023-03-12T01:12:51.740Z,81.16
2023-03-12T01:13:51.648Z,80.64
2023-03-12T01:14:51.646Z,80.74
2023-03-12T01:15:51.647Z,80.33
2023-03-12T01:16:52.633Z,80.08
2023-03-12T01:17:51.600Z,79.98
2023-03-12T01:18:51.675Z,79.66
2023-03-12T01:19:51.590Z,79.46
2023-03-12T01:20:51.561Z,79.25
2023-03-12T01:21:51.560Z,79.14
2023-03-12T01:22:51.604Z,78.83
2023-03-12T01:23:51.541Z,79.14
2023-03-12T01:24:51.580Z,79.39
2023-03-12T01:25:51.502Z,79.91
2023-03-12T01:26:51.504Z,80.02
2023-03-12T01:27:51.494Z,80.02
2023-03-12T01:28:51.488Z,79.66
2023-03-12T01:29:51.453Z,79.66
2023-03-12T01:30:51.502Z,79.28
2023-03-12T01:31:51.483Z,80.02
2023-03-12T01:32:51.465Z,79.77
2023-03-12T01:33:51.430Z,79.46
2023-03-12T01:34:51.413Z,79.49
2023-03-12T01:35:51.479Z,79.87
2023-03-12T01:36:51.392Z,79.87
2023-03-12T01:37:51.362Z,79.77
2023-03-12T01:38:51.365Z,79.56
2023-03-12T01:39:51.363Z,79.14
2023-03-12T01:40:51.345Z,79.00
2023-03-12T01:41:51.371Z,78.80
2023-03-12T01:42:51.336Z,78.80
2023-03-12T01:43:51.299Z,78.69
2023-03-12T01:44:51.305Z,78.73
2023-03-12T01:45:51.299Z,78.90
2023-03-12T01:46:51.260Z,78.69
2023-03-12T01:47:51.290Z,78.69
2023-03-12T01:48:51.271Z,78.80
2023-03-12T01:49:51.237Z,78.69
2023-03-12T01:50:51.228Z,78.94
2023-03-12T01:51:51.212Z,78.94
2023-03-12T01:52:51.213Z,78.90
2023-03-12T01:53:51.222Z,78.42
2023-03-12T01:54:51.173Z,78.63
2023-03-12T01:55:51.160Z,78.52
2023-03-12T01:56:51.138Z,78.63
2023-03-12T01:57:51.130Z,78.63
2023-03-12T01:58:51.118Z,79.25
2023-03-12T01:59:51.139Z,79.56
2023-03-12T02:00:51.126Z,79.49
2023-03-12T02:01:51.118Z,79.87
2023-03-12T02:02:51.090Z,79.56
2023-03-12T02:03:51.078Z,79.04
2023-03-12T02:04:51.065Z,79.46
2023-03-12T02:05:51.058Z,79.87
2023-03-12T02:06:51.056Z,79.77
2023-03-12T02:07:51.035Z,79.42
2023-03-12T02:08:50.997Z,78.90
2023-03-12T02:09:51.002Z,78.38
2023-03-12T02:10:51.237Z,78.24
2023-03-12T02:11:50.980Z,78.14
2023-03-12T02:12:50.959Z,78.14
2023-03-12T02:13:51.002Z,78.14
2023-03-12T02:14:50.967Z,78.14
2023-03-12T02:15:50.951Z,78.03
2023-03-12T02:16:50.986Z,78.03
2023-03-12T02:17:50.944Z,78.28
2023-03-12T02:18:50.920Z,79.21
2023-03-12T02:19:50.888Z,79.32
2023-03-12T02:20:50.879Z,79.25
2023-03-12T02:21:50.861Z,79.56
2023-03-12T02:22:50.882Z,79.87
2023-03-12T02:23:50.851Z,79.94
2023-03-12T02:24:50.830Z,79.63
2023-03-12T02:25:50.822Z,79.56
2023-03-12T02:26:50.800Z,79.66
2023-03-12T02:27:50.801Z,80.19
2023-03-12T02:28:50.813Z,79.73
2023-03-12T02:29:50.782Z,79.32
2023-03-12T02:30:50.785Z,79.00
2023-03-12T02:31:50.794Z,79.11
2023-03-12T02:32:50.748Z,79.21
2023-03-12T02:33:50.745Z,79.42
2023-03-12T02:34:50.861Z,79.11
2023-03-12T02:35:50.729Z,79.11
2023-03-12T02:36:50.694Z,79.42
2023-03-12T02:37:50.697Z,79.11
2023-03-12T02:38:50.675Z,79.11
2023-03-12T02:39:50.701Z,79.21
2023-03-12T02:40:50.692Z,79.04
2023-03-12T02:41:50.666Z,79.04
2023-03-12T02:42:50.633Z,79.11
2023-03-12T02:43:50.612Z,79.21
2023-03-12T02:44:50.611Z,78.66
2023-03-12T02:45:50.632Z,78.45
2023-03-12T02:46:50.595Z,78.14
2023-03-12T02:47:50.578Z,78.03
2023-03-12T02:48:50.612Z,77.72
2023-03-12T02:49:50.572Z,77.55
2023-03-12T02:50:50.593Z,78.52
2023-03-12T02:51:50.643Z,78.80
2023-03-12T02:52:50.522Z,78.90
2023-03-12T02:53:50.514Z,78.69
2023-03-12T02:54:50.514Z,78.59
2023-03-12T02:55:50.487Z,78.49
2023-03-12T02:56:50.495Z,78.38
2023-03-12T02:57:50.464Z,78.49
2023-03-12T02:58:50.472Z,78.28
2023-03-12T02:59:50.438Z,78.28
2023-03-12T03:00:50.434Z,77.96
2023-03-12T03:01:50.415Z,78.17
2023-03-12T03:02:50.433Z,78.49
2023-03-12T03:03:50.471Z,78.28
2023-03-12T03:04:50.409Z,78.38
2023-03-12T03:05:50.375Z,78.17
2023-03-12T03:06:50.355Z,77.93
2023-03-12T03:07:50.354Z,77.51
2023-03-12T03:08:50.403Z,77.96
2023-03-12T03:09:50.378Z,77.96
2023-03-12T03:10:50.349Z,78.31
2023-03-12T03:11:50.326Z,78.63
2023-03-12T03:12:50.286Z,78.80
2023-03-12T03:13:50.308Z,78.38
2023-03-12T03:14:50.327Z,78.28
2023-03-12T03:15:50.309Z,78.07
2023-03-12T03:16:50.293Z,78.38
2023-03-12T03:17:50.236Z,78.07
2023-03-12T03:18:50.245Z,78.28
2023-03-12T03:19:50.258Z,77.93
2023-03-12T03:20:50.215Z,77.51
2023-03-12T03:21:50.189Z,77.61
2023-03-12T03:22:50.181Z,77.51
2023-03-12T03:23:50.159Z,77.61
2023-03-12T03:24:50.273Z,77.51
2023-03-12T03:25:50.191Z,77.40
2023-03-12T03:26:50.153Z,77.51
2023-03-12T03:27:50.113Z,77.61
2023-03-12T03:28:50.176Z,77.51
2023-03-12T03:29:55.348Z,77.72
2023-03-12T03:30:50.144Z,77.96
2023-03-12T03:31:50.110Z,78.03
2023-03-12T03:32:50.109Z,78.03
2023-03-12T03:33:50.118Z,77.72
2023-03-12T03:34:50.057Z,77.61
2023-03-12T03:35:50.071Z,77.72
2023-03-12T03:36:50.051Z,77.93
2023-03-12T03:37:50.022Z,77.83
2023-03-12T03:38:50.027Z,78.14
2023-03-12T03:39:49.989Z,78.03
2023-03-12T03:40:49.974Z,77.83
2023-03-12T03:41:49.985Z,77.72
2023-03-12T03:42:49.977Z,77.69
2023-03-12T03:43:49.967Z,77.58
2023-03-12T03:44:49.965Z,77.48
2023-03-12T03:45:49.965Z,77.27
2023-03-12T03:46:49.929Z,77.69
2023-03-12T03:47:49.904Z,77.30
2023-03-12T03:48:49.929Z,77.51
2023-03-12T03:49:49.878Z,77.83
2023-03-12T03:50:49.878Z,77.61
2023-03-12T03:51:49.871Z,77.83
2023-03-12T03:52:49.877Z,77.61
2023-03-12T03:53:49.834Z,77.96
2023-03-12T03:54:49.858Z,77.83
2023-03-12T03:55:49.825Z,77.40
2023-03-12T03:56:49.819Z,77.51
2023-03-12T03:57:49.782Z,77.20
2023-03-12T03:58:49.782Z,76.99
2023-03-12T03:59:49.797Z,76.89
2023-03-12T04:00:49.778Z,77.13
2023-03-12T04:01:49.747Z,77.34
2023-03-12T04:02:49.748Z,76.99
2023-03-12T04:03:49.757Z,77.20
2023-03-12T04:04:49.781Z,77.30
2023-03-12T04:05:49.749Z,76.78
2023-03-12T04:06:49.690Z,76.54
2023-03-12T04:07:49.681Z,76.23
2023-03-12T04:08:49.669Z,76.12
2023-03-12T04:09:49.712Z,76.02
2023-03-12T04:10:49.669Z,76.57
2023-03-12T04:11:49.668Z,76.68
2023-03-12T04:12:49.630Z,76.99
2023-03-12T04:13:49.613Z,77.34
2023-03-12T04:14:49.609Z,77.61
2023-03-12T04:15:49.695Z,77.06
2023-03-12T04:16:49.584Z,77.27
2023-03-12T04:17:49.676Z,77.37
2023-03-12T04:18:49.580Z,77.16
2023-03-12T04:19:49.528Z,76.95
2023-03-12T04:20:49.599Z,77.23
2023-03-12T04:21:49.543Z,77.72
2023-03-12T04:22:49.508Z,77.69
2023-03-12T04:23:49.537Z,76.95
2023-03-12T04:24:49.481Z,76.51
2023-03-12T04:25:49.466Z,76.12
2023-03-12T04:26:49.464Z,76.33
2023-03-12T04:27:49.439Z,76.64
2023-03-12T04:28:49.553Z,76.95
2023-03-12T04:29:49.459Z,76.95
2023-03-12T04:30:49.424Z,76.64
2023-03-12T04:31:49.388Z,76.85
2023-03-12T04:32:49.473Z,77.37
2023-03-12T04:33:49.379Z,77.37
2023-03-12T04:34:49.393Z,77.16
2023-03-12T04:35:49.446Z,76.72
2023-03-12T04:36:49.362Z,76.72
2023-03-12T04:37:49.344Z,76.82
2023-03-12T04:38:49.323Z,76.61
2023-03-12T04:39:49.322Z,76.19
2023-03-12T04:40:49.304Z,76.40
2023-03-12T04:41:49.398Z,76.02
2023-03-12T04:42:49.281Z,76.54
2023-03-12T04:43:49.271Z,76.51
2023-03-12T04:44:49.255Z,76.29
2023-03-12T04:45:49.272Z,75.98
2023-03-12T04:46:49.351Z,75.95
2023-03-12T04:47:49.254Z,75.78
2023-03-12T04:48:49.235Z,75.95
2023-03-12T04:49:49.237Z,75.74
2023-03-12T04:50:49.214Z,75.36
2023-03-12T04:51:49.199Z,75.81
2023-03-12T04:52:49.221Z,76.23
2023-03-12T04:53:49.226Z,77.03
2023-03-12T04:54:49.204Z,77.86
2023-03-12T04:55:49.155Z,78.28
2023-03-12T04:56:49.130Z,78.49
2023-03-12T04:57:49.164Z,78.63
2023-03-12T04:58:49.145Z,78.69
2023-03-12T04:59:49.133Z,78.90
2023-03-12T05:00:49.087Z,78.66
2023-03-12T05:01:49.070Z,78.28
2023-03-12T05:02:49.098Z,78.59
2023-03-12T05:03:49.154Z,78.69
2023-03-12T05:04:49.048Z,79.42
2023-03-12T05:05:49.056Z,78.90
2023-03-12T05:06:49.022Z,78.34
2023-03-12T05:07:49.251Z,78.03
2023-03-12T05:08:48.999Z,77.83
2023-03-12T05:09:49.025Z,77.40
2023-03-12T05:10:49.000Z,77.51
2023-03-12T05:11:49.007Z,77.96
2023-03-12T05:12:48.998Z,78.42
2023-03-12T05:13:48.956Z,79.00
2023-03-12T05:14:48.941Z,78.52
2023-03-12T05:15:48.930Z,78.69
2023-03-12T05:16:48.900Z,78.07
2023-03-12T05:17:48.926Z,78.49
2023-03-12T05:18:48.892Z,78.55
2023-03-12T05:19:48.882Z,78.28
2023-03-12T05:20:48.889Z,78.59
2023-03-12T05:21:48.916Z,78.45
2023-03-12T05:22:48.858Z,77.83
2023-03-12T05:23:48.828Z,78.24
2023-03-12T05:24:48.872Z,78.10
2023-03-12T05:25:48.800Z,79.46
2023-03-12T05:26:48.871Z,79.42
2023-03-12T05:27:48.851Z,79.11
2023-03-12T05:28:48.760Z,78.59
2023-03-12T05:29:48.776Z,78.90
2023-03-12T05:30:48.744Z,79.11
2023-03-12T05:31:48.775Z,79.00
2023-03-12T05:32:48.813Z,79.00
2023-03-12T05:33:50.995Z,79.32
2023-03-12T05:34:48.726Z,79.49
2023-03-12T05:35:48.721Z,79.38
2023-03-12T05:36:48.687Z,79.69
2023-03-12T05:37:48.664Z,79.69
2023-03-12T05:38:48.697Z,79.94
2023-03-12T05:39:48.633Z,79.80
2023-03-12T05:40:48.621Z,79.83
2023-03-12T05:41:48.633Z,80.46
2023-03-12T05:42:48.610Z,81.09
2023-03-12T05:43:48.595Z,80.43
2023-03-12T05:44:48.617Z,80.15
2023-03-12T05:45:48.636Z,80.15
2023-03-12T05:46:48.563Z,79.83
2023-03-12T05:47:48.543Z,80.46
2023-03-12T05:48:48.535Z,80.36
2023-03-12T05:49:48.521Z,80.11
2023-03-12T05:50:48.565Z,80.15
2023-03-12T05:51:48.500Z,80.01
2023-03-12T05:52:48.506Z,79.49
2023-03-12T05:53:48.506Z,79.59
2023-03-12T05:54:48.473Z,79.38
2023-03-12T05:55:48.451Z,79.38
2023-03-12T05:56:48.456Z,79.21
2023-03-12T05:57:48.427Z,79.80
2023-03-12T05:58:48.426Z,79.55
2023-03-12T05:59:48.398Z,78.83
2023-03-12T06:00:48.400Z,79.17
2023-03-12T06:01:48.521Z,79.14
2023-03-12T06:02:48.378Z,78.83
2023-03-12T06:03:48.431Z,78.55
2023-03-12T06:04:48.357Z,78.86
2023-03-12T06:05:48.345Z,79.14
2023-03-12T06:06:48.339Z,78.83
2023-03-12T06:07:48.377Z,79.07
2023-03-12T06:08:48.301Z,79.59
2023-03-12T06:09:48.297Z,79.03
2023-03-12T06:10:48.288Z,78.62
2023-03-12T06:11:48.329Z,78.06
2023-03-12T06:12:48.271Z,77.86
2023-03-12T06:13:48.266Z,77.79
2023-03-12T06:14:48.233Z,78.10
2023-03-12T06:15:48.253Z,78.20
2023-03-12T06:16:48.258Z,78.41
2023-03-12T06:17:48.215Z,78.20
2023-03-12T06:18:48.236Z,78.41
2023-03-12T06:19:48.193Z,78.06
2023-03-12T06:20:48.233Z,77.23
2023-03-12T06:21:48.161Z,77.34
2023-03-12T06:22:48.147Z,77.09
2023-03-12T06:23:48.165Z,76.68
2023-03-12T06:24:48.156Z,76.19
2023-03-12T06:25:48.118Z,76.61
2023-03-12T06:26:48.111Z,76.78
2023-03-12T06:27:48.121Z,76.57
2023-03-12T06:28:48.099Z,76.57
2023-03-12T06:29:48.067Z,76.06
2023-03-12T06:30:48.164Z,75.50
2023-03-12T06:31:48.074Z,75.19
2023-03-12T06:32:48.084Z,75.29
2023-03-12T06:33:48.032Z,75.71
2023-03-12T06:34:48.019Z,75.81
2023-03-12T06:35:48.039Z,75.60
2023-03-12T06:36:48.030Z,75.19
2023-03-12T06:37:47.982Z,74.88
2023-03-12T06:38:47.967Z,75.43
2023-03-12T06:39:47.954Z,75.64
2023-03-12T06:40:47.957Z,76.06
2023-03-12T06:41:47.936Z,76.16
2023-03-12T06:42:47.985Z,75.85
2023-03-12T06:43:47.913Z,75.71
2023-03-12T06:44:47.893Z,75.29
2023-03-12T06:45:47.876Z,75.64
2023-03-12T06:46:48.122Z,76.19
2023-03-12T06:47:47.890Z,75.98
2023-03-12T06:48:47.875Z,75.74
2023-03-12T06:49:47.872Z,75.54
2023-03-12T06:50:47.871Z,75.64
2023-03-12T06:51:47.827Z,75.64
2023-03-12T06:52:47.834Z,75.50
2023-03-12T06:53:48.030Z,75.09
2023-03-12T06:54:47.800Z,74.74
2023-03-12T06:55:47.768Z,74.63
2023-03-12T06:56:47.862Z,74.15
2023-03-12T06:57:47.753Z,75.12
2023-03-12T06:58:47.751Z,75.50
2023-03-12T06:59:50.417Z,75.26
2023-03-12T07:00:47.725Z,74.71
2023-03-12T07:01:47.736Z,74.08
2023-03-12T07:02:47.704Z,74.05
2023-03-12T07:03:47.691Z,73.67
2023-03-12T07:04:47.779Z,73.88
2023-03-12T07:05:47.678Z,73.88
2023-03-12T07:06:47.665Z,73.63
2023-03-12T07:07:47.673Z,73.46
2023-03-12T07:08:47.635Z,73.91
2023-03-12T07:09:47.632Z,73.88
2023-03-12T07:10:47.653Z,73.60
2023-03-12T07:11:47.629Z,73.60
2023-03-12T07:12:47.595Z,73.84
2023-03-12T07:13:47.600Z,73.91
2023-03-12T07:14:47.577Z,73.60
2023-03-12T07:15:47.591Z,73.80
2023-03-12T07:16:47.570Z,73.80
2023-03-12T07:17:47.530Z,73.60
2023-03-12T07:18:47.652Z,73.60
2023-03-12T07:19:49.711Z,73.70
2023-03-12T07:20:47.502Z,73.88
2023-03-12T07:21:47.528Z,73.18
2023-03-12T07:22:47.547Z,72.97
2023-03-12T07:23:47.467Z,73.60
2023-03-12T07:24:47.460Z,73.39
2023-03-12T07:25:47.522Z,73.60
2023-03-12T07:26:47.432Z,73.36
2023-03-12T07:27:47.435Z,73.15
2023-03-12T07:28:47.436Z,73.05
2023-03-12T07:29:47.401Z,73.01
2023-03-12T07:30:47.395Z,72.49
2023-03-12T07:31:47.401Z,72.53
2023-03-12T07:32:47.429Z,73.18
2023-03-12T07:33:47.470Z,74.11
2023-03-12T07:34:47.344Z,74.01
2023-03-12T07:35:50.078Z,73.94
2023-03-12T07:36:47.470Z,74.67
2023-03-12T07:37:47.401Z,74.98
2023-03-12T07:38:47.315Z,75.29
2023-03-12T07:39:47.432Z,75.02
2023-03-12T07:40:47.877Z,74.74
2023-03-12T07:41:47.263Z,74.53
2023-03-12T07:42:47.303Z,74.88
2023-03-12T07:43:47.515Z,75.46
2023-03-12T07:44:47.216Z,75.26
2023-03-12T07:45:47.296Z,74.53
2023-03-12T07:46:47.273Z,74.50
2023-03-12T07:47:47.552Z,74.08
2023-03-12T07:48:47.445Z,74.05
2023-03-12T07:49:47.278Z,74.15
2023-03-12T07:50:47.198Z,74.46
2023-03-12T07:51:47.295Z,73.84
2023-03-12T07:52:47.161Z,73.88
2023-03-12T07:53:47.175Z,74.40
2023-03-12T07:54:47.732Z,74.19
2023-03-12T07:55:47.514Z,73.94
2023-03-12T07:56:47.253Z,73.67
2023-03-12T07:57:47.203Z,73.98
2023-03-12T07:58:47.235Z,74.08
2023-03-12T07:59:47.187Z,74.50
2023-03-12T08:00:47.083Z,74.50
2023-03-12T08:01:47.325Z,74.40
2023-03-12T08:02:47.742Z,74.60
2023-03-12T08:03:47.585Z,74.91
2023-03-12T08:04:47.082Z,74.50
2023-03-12T08:05:47.235Z,74.95
2023-03-12T08:06:47.096Z,75.46
2023-03-12T08:07:47.006Z,74.91
2023-03-12T08:08:47.214Z,74.29
2023-03-12T08:09:46.982Z,74.29
2023-03-12T08:10:46.946Z,74.08
2023-03-12T08:11:47.050Z,73.84
2023-03-12T08:12:47.043Z,73.53
2023-03-12T08:13:46.934Z,73.53
2023-03-12T08:14:46.976Z,73.32
2023-03-12T08:15:46.887Z,73.88
2023-03-12T08:16:47.223Z,74.26
2023-03-12T08:17:46.866Z,74.29
2023-03-12T08:18:46.833Z,74.29
2023-03-12T08:19:46.864Z,74.77
2023-03-12T08:20:46.867Z,74.91
2023-03-12T08:21:46.885Z,75.23
2023-03-12T08:22:46.886Z,75.29
2023-03-12T08:23:46.785Z,74.57
2023-03-12T08:24:46.820Z,74.57
2023-03-12T08:25:46.861Z,74.98
2023-03-12T08:26:46.758Z,74.43
2023-03-12T08:27:46.757Z,74.32
2023-03-12T08:28:46.736Z,75.09
2023-03-12T08:29:46.719Z,75.46
2023-03-12T08:30:46.704Z,75.26
2023-03-12T08:32:01.763Z,75.88
2023-03-12T08:32:47.749Z,75.78
2023-03-12T08:33:46.748Z,76.57
2023-03-12T08:34:46.667Z,77.78
2023-03-12T08:35:46.726Z,77.68
2023-03-12T08:36:46.694Z,77.47
2023-03-12T08:37:46.677Z,77.99
2023-03-12T08:38:46.618Z,78.41
2023-03-12T08:39:46.632Z,77.99
2023-03-12T08:40:46.620Z,78.30
2023-03-12T08:41:46.596Z,79.58
2023-03-12T08:42:46.652Z,80.45
2023-03-12T08:43:46.576Z,81.04
2023-03-12T08:44:46.551Z,81.14
2023-03-12T08:45:46.596Z,81.41
2023-03-12T08:46:46.580Z,81.45
2023-03-12T08:47:46.584Z,82.49
2023-03-12T08:48:46.647Z,82.80
2023-03-12T08:49:46.528Z,83.28
2023-03-12T08:50:46.494Z,83.22
2023-03-12T08:51:46.472Z,83.63
2023-03-12T08:52:46.492Z,83.63
2023-03-12T08:53:46.590Z,84.00
2023-03-12T08:54:46.472Z,83.90
2023-03-12T08:55:46.534Z,83.34
2023-03-12T08:56:46.462Z,82.62
2023-03-12T08:57:46.477Z,83.55
2023-03-12T08:58:46.438Z,83.69
2023-03-12T08:59:46.410Z,84.42
2023-03-12T09:00:46.424Z,84.21
2023-03-12T09:01:46.467Z,84.11
2023-03-12T09:02:46.413Z,84.56
2023-03-12T09:03:46.362Z,85.39
2023-03-12T09:04:46.502Z,84.98
2023-03-12T09:05:46.398Z,85.14
2023-03-12T09:06:46.434Z,85.04
2023-03-12T09:07:46.341Z,85.11
2023-03-12T09:08:46.330Z,84.59
2023-03-12T09:09:46.358Z,84.23
2023-03-12T09:10:46.289Z,84.00
2023-03-12T09:11:46.331Z,84.52
2023-03-12T09:12:46.287Z,84.42
2023-03-12T09:14:08.199Z,84.94
2023-03-12T09:15:03.022Z,85.22
2023-03-12T09:15:47.233Z,86.88
2023-03-12T09:16:46.253Z,86.80
2023-03-12T09:17:46.285Z,85.87
2023-03-12T09:18:46.605Z,85.77
2023-03-12T09:19:46.252Z,86.49
2023-03-12T09:20:46.265Z,86.18
2023-03-12T09:21:46.162Z,86.29
2023-03-12T09:22:46.201Z,86.18
2023-03-12T09:23:46.222Z,86.91
2023-03-12T09:24:46.120Z,86.76
2023-03-12T09:25:46.161Z,86.41
2023-03-12T09:26:46.102Z,85.52
2023-03-12T09:27:46.130Z,86.39
2023-03-12T09:28:46.374Z,87.22
2023-03-12T09:29:59.032Z,87.01
2023-03-12T09:30:47.098Z,86.45
2023-03-12T09:31:46.069Z,86.66
2023-03-12T09:32:46.135Z,86.15
2023-03-12T09:33:46.044Z,86.60
2023-03-12T09:34:46.006Z,87.07
2023-03-12T09:35:46.125Z,86.39
2023-03-12T09:36:46.004Z,87.12
2023-03-12T09:37:47.509Z,87.84
2023-03-12T09:38:46.015Z,88.36
2023-03-12T09:39:45.981Z,88.11
2023-03-12T09:40:46.021Z,87.32
2023-03-12T09:41:45.954Z,87.90
2023-03-12T09:42:47.534Z,87.70
2023-03-12T09:43:45.997Z,87.18
2023-03-12T09:44:45.978Z,87.07
2023-03-12T09:45:45.970Z,87.35
2023-03-12T09:46:45.924Z,86.97
2023-03-12T09:47:45.891Z,87.38
2023-03-12T09:48:47.551Z,88.26
2023-03-12T09:49:45.893Z,88.46
2023-03-12T09:50:45.864Z,88.67
2023-03-12T09:51:45.820Z,88.67
2023-03-12T09:52:45.860Z,89.19
2023-03-12T09:53:45.792Z,89.09
2023-03-12T09:54:47.489Z,89.04
2023-03-12T09:55:45.805Z,88.63
2023-03-12T09:56:45.782Z,88.18
2023-03-12T09:57:45.799Z,88.07
2023-03-12T09:58:45.775Z,88.21
2023-03-12T09:59:45.738Z,88.63
2023-03-12T10:00:47.552Z,88.39
2023-03-12T10:01:45.771Z,87.76
2023-03-12T10:02:45.717Z,88.11
2023-03-12T10:03:45.760Z,88.53
2023-03-12T10:04:58.573Z,88.21
2023-03-12T10:05:46.706Z,88.73
2023-03-12T10:06:47.245Z,88.94
2023-03-12T10:07:45.686Z,89.25
2023-03-12T10:08:45.648Z,89.19
2023-03-12T10:09:45.689Z,89.71
2023-03-12T10:10:45.676Z,89.52
2023-03-12T10:11:45.727Z,88.78
2023-03-12T10:12:47.538Z,89.87
2023-03-12T10:13:45.577Z,89.61
2023-03-12T10:14:45.605Z,89.67
2023-03-12T10:15:45.626Z,89.40
2023-03-12T10:16:45.566Z,90.85
2023-03-12T10:17:45.589Z,90.85
2023-03-12T10:18:48.147Z,91.43
2023-03-12T10:19:45.526Z,91.12
2023-03-12T10:20:45.562Z,91.33
2023-03-12T10:21:45.531Z,90.97
2023-03-12T10:22:45.596Z,90.25
2023-03-12T10:23:45.508Z,89.94
2023-03-12T10:24:45.468Z,89.94
2023-03-12T10:25:45.461Z,90.35
2023-03-12T10:26:45.613Z,89.87
2023-03-12T10:27:45.526Z,91.22
2023-03-12T10:28:45.465Z,90.56
2023-03-12T10:29:45.566Z,90.45
2023-03-12T10:30:45.424Z,90.25
2023-03-12T10:31:45.410Z,90.00
2023-03-12T10:32:45.459Z,89.28
2023-03-12T10:33:45.433Z,90.04
2023-03-12T10:34:45.377Z,90.35
2023-03-12T10:35:45.357Z,90.87
2023-03-12T10:36:45.379Z,90.20
2023-03-12T10:37:45.334Z,90.20
2023-03-12T10:38:45.399Z,90.00
2023-03-12T10:39:45.335Z,90.10
2023-03-12T10:40:45.410Z,89.94
2023-03-12T10:41:45.332Z,90.70
2023-03-12T10:42:45.282Z,91.74
2023-03-12T10:43:45.338Z,91.70
2023-03-12T10:44:45.290Z,90.83
2023-03-12T10:45:45.269Z,90.62
2023-03-12T10:46:45.264Z,90.56
2023-03-12T10:47:45.228Z,91.18
2023-03-12T10:48:45.233Z,91.14
2023-03-12T10:49:45.286Z,91.08
2023-03-12T10:50:45.208Z,91.49
2023-03-12T10:51:45.167Z,91.70
2023-03-12T10:52:45.158Z,92.43
2023-03-12T10:53:45.172Z,92.74
2023-03-12T10:54:45.174Z,92.63
2023-03-12T10:55:45.175Z,92.63
2023-03-12T10:56:45.118Z,93.04
2023-03-12T10:57:45.106Z,92.59
2023-03-12T10:58:45.156Z,92.90
2023-03-12T10:59:45.122Z,92.94
2023-03-12T11:00:45.079Z,93.73
2023-03-12T11:01:45.156Z,92.90
2023-03-12T11:02:45.110Z,93.79
2023-03-12T11:03:45.051Z,94.01
2023-03-12T11:04:45.034Z,92.72
2023-03-12T11:05:45.121Z,91.69
2023-03-12T11:06:45.018Z,90.91
2023-03-12T11:07:45.053Z,90.78
2023-03-12T11:08:44.993Z,92.55
2023-03-12T11:09:45.018Z,92.34
2023-03-12T11:10:44.961Z,92.40
2023-03-12T11:11:44.975Z,92.30
2023-03-12T11:12:44.928Z,92.30
2023-03-12T11:13:44.961Z,92.71
2023-03-12T11:14:44.905Z,91.94
2023-03-12T11:15:44.936Z,91.63
2023-03-12T11:16:44.894Z,91.42
2023-03-12T11:17:44.897Z,91.20
2023-03-12T11:18:44.922Z,92.50
2023-03-12T11:19:44.893Z,92.03
2023-03-12T11:20:44.920Z,93.02
2023-03-12T11:21:44.862Z,92.85
2023-03-12T11:22:44.864Z,93.12
2023-03-12T11:23:44.846Z,92.50
2023-03-12T11:24:44.845Z,92.65
2023-03-12T11:25:44.875Z,92.81
2023-03-12T11:26:44.785Z,91.67
2023-03-12T11:27:44.800Z,92.11
2023-03-12T11:28:44.801Z,92.11
2023-03-12T11:29:44.812Z,92.07
2023-03-12T11:30:44.802Z,91.13
2023-03-12T11:31:47.042Z,90.74
2023-03-12T11:32:44.763Z,88.96
2023-03-12T11:33:44.702Z,90.16
2023-03-12T11:34:44.707Z,89.48
2023-03-12T11:35:44.714Z,89.13
2023-03-12T11:36:44.714Z,89.69
2023-03-12T11:37:44.653Z,90.66
2023-03-12T11:38:44.658Z,90.41
2023-03-12T11:39:44.689Z,89.73
2023-03-12T11:40:44.781Z,90.87
2023-03-12T11:41:44.666Z,91.42
2023-03-12T11:42:44.614Z,91.13
2023-03-12T11:43:44.611Z,90.83
2023-03-12T11:44:44.578Z,90.56
2023-03-12T11:45:44.607Z,90.70
2023-03-12T11:46:44.602Z,91.17
2023-03-12T11:47:44.639Z,90.83
2023-03-12T11:48:44.576Z,90.31
2023-03-12T11:49:44.557Z,89.44
2023-03-12T11:50:44.518Z,88.90
2023-03-12T11:51:44.489Z,90.45
2023-03-12T11:52:44.473Z,90.87
2023-03-12T11:53:44.552Z,90.00
2023-03-12T11:54:44.503Z,89.79
2023-03-12T11:55:44.477Z,89.42
2023-03-12T11:56:44.488Z,89.69
2023-03-12T11:57:44.417Z,89.44
2023-03-12T11:58:44.415Z,88.47
2023-03-12T11:59:44.449Z,88.78
2023-03-12T12:00:46.863Z,88.16
2023-03-12T12:01:44.397Z,88.06
2023-03-12T12:02:44.479Z,88.22
2023-03-12T12:03:44.389Z,87.40
2023-03-12T12:04:44.350Z,87.40
2023-03-12T12:05:44.388Z,87.71
2023-03-12T12:06:45.845Z,87.35
2023-03-12T12:07:44.322Z,86.32
2023-03-12T12:08:44.324Z,86.53
2023-03-12T12:09:44.322Z,86.76
2023-03-12T12:10:44.332Z,85.87
2023-03-12T12:11:44.258Z,85.46
2023-03-12T12:12:44.249Z,86.08
2023-03-12T12:13:44.289Z,85.89
2023-03-12T12:14:44.251Z,85.22
2023-03-12T12:15:44.237Z,85.59
2023-03-12T12:16:44.373Z,84.49
2023-03-12T12:17:44.235Z,85.14
2023-03-12T12:18:44.349Z,84.69
2023-03-12T12:19:44.212Z,83.26
2023-03-12T12:20:44.153Z,85.01
2023-03-12T12:21:44.157Z,84.43
2023-03-12T12:22:44.483Z,85.42
2023-03-12T12:23:44.171Z,85.52
2023-03-12T12:24:44.122Z,85.94
2023-03-12T12:25:45.104Z,86.10
2023-03-12T12:26:44.128Z,85.34
2023-03-12T12:27:44.146Z,84.59
2023-03-12T12:28:44.094Z,85.89
2023-03-12T12:29:44.075Z,85.38
2023-03-12T12:30:44.054Z,85.14
2023-03-12T12:31:44.097Z,84.62
2023-03-12T12:32:44.098Z,84.00
2023-03-12T12:33:45.260Z,83.97
2023-03-12T12:34:44.031Z,83.00
2023-03-12T12:35:44.165Z,83.28
2023-03-12T12:36:44.001Z,84.11
2023-03-12T12:37:43.979Z,83.65
2023-03-12T12:38:44.007Z,84.25
2023-03-12T12:39:46.675Z,85.03
2023-03-12T12:40:43.973Z,84.42
2023-03-12T12:41:43.936Z,83.86
2023-03-12T12:42:43.913Z,83.17
2023-03-12T12:43:43.993Z,82.24
2023-03-12T12:44:43.922Z,82.45
2023-03-12T12:45:43.955Z,81.90
2023-03-12T12:46:43.921Z,82.00
2023-03-12T12:47:43.885Z,81.69
2023-03-12T12:48:43.876Z,81.82
2023-03-12T12:49:43.881Z,80.18
2023-03-12T12:50:43.954Z,80.15
2023-03-12T12:51:43.874Z,82.17
2023-03-12T12:52:43.794Z,80.73